Time;durP1;ratioP1;P1;durP2;ratioP2;P2;SDS_P1;SDS_P2;PMS_P1;PMS_P2;Temp;Humidity;BMP_temperature;BMP_pressure;BME280_temperature;BME280_humidity;BME280_pressure;Samples;Min_cycle;Max_cycle;Signal;HPM_P1;HPM_P2
2022/09/16 00:02:33;;;;;;;5.53;5.03;;;17.00;46.10;;;;;;10550352;28;20220;-76
2022/09/16 00:07:42;;;;;;;6.07;5.57;;;16.90;46.00;;;;;;10552704;28;20300;-75
2022/09/16 00:12:46;;;;;;;6.20;5.70;;;16.80;46.10;;;;;;10554011;28;20227;-76
2022/09/16 00:17:50;;;;;;;6.60;5.90;;;16.80;46.20;;;;;;10555434;28;20227;-76
2022/09/16 00:22:53;;;;;;;5.47;5.07;;;16.70;46.30;;;;;;10553988;28;20253;-75
2022/09/16 00:27:58;;;;;;;6.43;5.63;;;16.60;46.60;;;;;;10553707;28;20856;-75
2022/09/16 00:33:01;;;;;;;6.07;5.53;;;16.50;46.80;;;;;;10556151;28;20272;-75
2022/09/16 00:38:04;;;;;;;6.60;6.10;;;16.50;47.00;;;;;;10551779;28;20223;-76
2022/09/16 00:43:13;;;;;;;6.40;5.80;;;16.50;46.90;;;;;;10557594;28;20275;-76
2022/09/16 00:48:21;;;;;;;6.80;6.17;;;16.50;47.20;;;;;;10563066;27;20227;-76
2022/09/16 00:53:28;;;;;;;5.47;4.97;;;16.50;47.20;;;;;;10561162;28;20227;-76
2022/09/16 00:58:39;;;;;;;5.97;5.47;;;16.50;47.20;;;;;;10561885;28;20223;-76
2022/09/16 01:03:46;;;;;;;5.93;5.43;;;16.50;47.30;;;;;;10563205;28;20276;-76
2022/09/16 01:08:50;;;;;;;6.77;6.27;;;16.50;47.20;;;;;;10563644;28;20231;-76
2022/09/16 01:14:51;;;;;;;6.77;6.27;;;16.50;47.10;;;;;;10561168;28;20223;-76
2022/09/16 01:19:37;;;;;;;6.40;5.80;;;16.50;47.00;;;;;;10560863;28;20234;-76
2022/09/16 01:24:52;;;;;;;6.87;6.27;;;16.50;46.70;;;;;;10562358;27;20222;-76
2022/09/16 01:30:20;;;;;;;5.23;4.70;;;16.50;46.80;;;;;;10557783;28;20223;-76
2022/09/16 01:35:33;;;;;;;6.50;5.10;;;16.50;47.00;;;;;;10549766;28;20223;-75
2022/09/16 01:40:47;;;;;;;6.47;5.87;;;16.40;46.90;;;;;;10558728;27;20222;-75
2022/09/16 01:45:56;;;;;;;7.10;6.50;;;16.40;46.70;;;;;;10558375;28;20235;-76
2022/09/16 01:51:05;;;;;;;5.97;5.50;;;16.40;46.60;;;;;;10560963;28;20227;-76
2022/09/16 01:56:13;;;;;;;6.47;5.93;;;16.40;46.30;;;;;;10558325;27;20241;-76
2022/09/16 02:01:23;;;;;;;6.93;6.33;;;16.30;46.60;;;;;;10555598;28;20242;-76
2022/09/16 02:06:30;;;;;;;6.60;6.00;;;16.20;46.80;;;;;;10558588;27;20260;-76
2022/09/16 02:11:34;;;;;;;6.83;6.23;;;16.20;47.00;;;;;;10552919;28;20962;-75
2022/09/16 02:16:43;;;;;;;6.10;5.60;;;16.20;46.80;;;;;;10555239;28;20235;-76
2022/09/16 02:21:49;;;;;;;6.97;6.40;;;16.20;47.00;;;;;;10556518;28;20237;-76
2022/09/16 02:26:59;;;;;;;7.37;6.77;;;16.20;46.90;;;;;;10556438;27;20400;-76
2022/09/16 02:32:06;;;;;;;5.53;5.13;;;16.20;46.90;;;;;;10554548;28;20223;-76
2022/09/16 02:37:18;;;;;;;5.93;5.40;;;16.20;46.80;;;;;;10549410;28;20651;-76
2022/09/16 02:42:21;;;;;;;4.80;4.40;;;16.20;46.70;;;;;;10554857;28;20706;-76
2022/09/16 02:47:31;;;;;;;6.97;6.23;;;16.20;46.80;;;;;;10556384;28;20751;-75
2022/09/16 02:52:41;;;;;;;6.50;6.00;;;16.20;47.00;;;;;;10553003;28;20223;-76
2022/09/16 02:57:44;;;;;;;7.53;6.93;;;16.20;47.00;;;;;;10546901;28;20707;-75
2022/09/16 03:02:47;;;;;;;6.70;6.00;;;16.20;47.00;;;;;;10551588;28;20222;-76
2022/09/16 03:07:52;;;;;;;7.77;6.73;;;16.10;46.90;;;;;;10554790;28;20231;-76
2022/09/16 03:13:03;;;;;;;6.27;5.77;;;16.10;47.10;;;;;;10549192;28;20227;-76
2022/09/16 03:18:41;;;;;;;7.23;6.07;;;16.10;47.30;;;;;;10556848;28;20233;-76
2022/09/16 03:23:56;;;;;;;7.67;6.97;;;16.10;47.40;;;;;;10553972;28;20227;-75
2022/09/16 03:29:08;;;;;;;6.80;6.17;;;16.10;47.40;;;;;;10536267;28;20235;-75
2022/09/16 03:34:17;;;;;;;7.17;6.57;;;16.10;47.40;;;;;;10556943;28;20231;-75
2022/09/16 03:39:23;;;;;;;8.03;6.90;;;16.10;47.50;;;;;;10557313;28;20684;-76
2022/09/16 03:44:32;;;;;;;9.40;8.60;;;16.00;47.40;;;;;;10549487;27;20242;-75
2022/09/16 03:49:35;;;;;;;7.47;6.80;;;16.00;47.90;;;;;;10532893;28;20227;-76
2022/09/16 03:54:40;;;;;;;6.80;6.20;;;16.00;48.00;;;;;;10553064;28;20596;-76
2022/09/16 03:59:43;;;;;;;6.93;6.43;;;16.00;48.80;;;;;;10532719;28;20219;-76
2022/09/16 04:04:46;;;;;;;7.30;6.60;;;16.10;48.80;;;;;;10545615;28;20231;-76
2022/09/16 04:09:50;;;;;;;7.00;6.43;;;16.20;49.00;;;;;;10554277;28;20276;-76
2022/09/16 04:14:54;;;;;;;8.60;7.53;;;16.20;49.20;;;;;;10536369;27;20230;-76
2022/09/16 04:19:57;;;;;;;7.97;7.07;;;16.20;49.00;;;;;;10546751;28;20631;-76
2022/09/16 04:25:01;;;;;;;6.77;6.17;;;16.20;49.00;;;;;;10553829;28;20223;-76
2022/09/16 04:30:05;;;;;;;7.20;6.60;;;16.30;49.50;;;;;;10559119;28;20694;-76
2022/09/16 04:35:09;;;;;;;7.23;6.53;;;16.30;49.20;;;;;;10557142;28;20234;-75
2022/09/16 04:40:14;;;;;;;8.47;6.77;;;16.40;49.40;;;;;;10549453;28;20223;-75
2022/09/16 04:45:17;;;;;;;7.00;6.40;;;16.40;49.60;;;;;;10542909;28;20340;-75
2022/09/16 04:50:20;;;;;;;8.13;7.33;;;16.40;49.20;;;;;;10548790;28;20223;-75
2022/09/16 04:55:25;;;;;;;7.60;7.00;;;16.50;49.40;;;;;;10537069;28;20237;-75
2022/09/16 05:00:28;;;;;;;7.47;6.87;;;16.50;49.70;;;;;;10561478;28;20691;-75
2022/09/16 05:05:31;;;;;;;7.67;7.03;;;16.50;49.50;;;;;;10552198;28;20235;-74
2022/09/16 05:10:36;;;;;;;7.50;6.60;;;16.50;49.50;;;;;;10542141;28;20261;-75
2022/09/16 05:15:39;;;;;;;8.73;7.50;;;16.50;49.70;;;;;;10565388;28;20234;-75
2022/09/16 05:20:42;;;;;;;7.23;6.53;;;16.60;49.40;;;;;;10575906;27;20243;-75
2022/09/16 05:25:47;;;;;;;7.33;6.73;;;16.60;50.00;;;;;;10566482;27;20228;-74
2022/09/16 05:30:50;;;;;;;7.77;7.17;;;16.60;49.40;;;;;;10564639;28;20267;-74
2022/09/16 05:35:53;;;;;;;7.60;6.90;;;16.60;49.00;;;;;;10541723;28;20787;-74
2022/09/16 05:41:13;;;;;;;7.97;7.27;;;16.60;49.10;;;;;;10563117;28;20261;-73
2022/09/16 05:46:18;;;;;;;8.87;7.93;;;16.60;49.60;;;;;;10563435;27;20738;-74
2022/09/16 05:51:23;;;;;;;7.30;6.60;;;16.60;49.20;;;;;;10563890;28;20230;-74
2022/09/16 05:56:30;;;;;;;7.53;6.83;;;16.60;49.20;;;;;;10567422;27;20230;-74
2022/09/16 06:01:35;;;;;;;8.37;7.33;;;16.60;49.50;;;;;;10560041;28;20247;-73
2022/09/16 06:06:40;;;;;;;8.50;7.70;;;16.60;49.60;;;;;;10567546;28;20594;-74
2022/09/16 06:11:46;;;;;;;8.37;7.67;;;16.60;49.70;;;;;;10563221;28;20227;-74
2022/09/16 06:16:49;;;;;;;7.73;7.13;;;16.60;50.30;;;;;;10564905;28;20215;-73
2022/09/16 06:21:52;;;;;;;8.40;7.60;;;16.60;49.90;;;;;;10564643;28;20231;-74
2022/09/16 06:26:57;;;;;;;12.07;10.97;;;16.70;49.90;;;;;;10563983;28;20766;-73
2022/09/16 06:32:00;;;;;;;10.17;9.27;;;16.70;50.00;;;;;;10563340;28;20231;-74
2022/09/16 06:37:04;;;;;;;9.63;8.83;;;16.80;50.00;;;;;;10566277;28;20303;-74
2022/09/16 06:42:08;;;;;;;8.80;7.90;;;16.80;50.00;;;;;;10563885;28;20913;-74
2022/09/16 06:47:12;;;;;;;8.33;7.60;;;16.80;50.40;;;;;;10558146;28;20211;-74
2022/09/16 06:52:15;;;;;;;8.30;7.60;;;16.90;50.20;;;;;;10564443;28;20223;-74
2022/09/16 06:57:21;;;;;;;7.90;7.17;;;17.00;50.30;;;;;;10559039;28;20231;-75
2022/09/16 07:02:25;;;;;;;7.90;7.10;;;17.00;50.40;;;;;;10575692;28;20219;-75
2022/09/16 07:07:30;;;;;;;8.17;7.47;;;17.10;50.30;;;;;;10576643;27;20310;-75
2022/09/16 07:12:35;;;;;;;10.77;8.00;;;17.10;50.40;;;;;;10575473;28;20230;-74
2022/09/16 07:17:38;;;;;;;8.57;7.67;;;17.20;50.40;;;;;;10575574;28;20486;-75
2022/09/16 07:22:41;;;;;;;8.57;7.80;;;17.30;50.20;;;;;;10576247;28;20223;-74
2022/09/16 07:27:46;;;;;;;7.23;6.70;;;17.30;49.70;;;;;;10575665;28;20223;-74
2022/09/16 07:32:49;;;;;;;9.00;8.10;;;17.30;49.70;;;;;;10570872;28;20223;-75
2022/09/16 07:37:52;;;;;;;8.93;8.13;;;17.40;49.50;;;;;;10571217;28;20233;-73
2022/09/16 07:42:58;;;;;;;8.33;7.63;;;17.40;49.70;;;;;;10567722;28;20234;-74
2022/09/16 07:48:01;;;;;;;8.50;7.80;;;17.40;50.20;;;;;;10571396;28;20231;-75
2022/09/16 07:53:04;;;;;;;8.73;7.93;;;17.40;49.80;;;;;;10570301;28;20219;-74
2022/09/16 07:58:08;;;;;;;8.70;7.90;;;17.50;49.70;;;;;;10570631;28;20226;-74
2022/09/16 08:03:11;;;;;;;8.50;7.63;;;17.50;50.20;;;;;;10570538;28;20311;-74
2022/09/16 08:08:15;;;;;;;9.13;8.17;;;17.50;49.60;;;;;;10551536;28;20593;-75
2022/09/16 08:13:19;;;;;;;8.03;7.33;;;17.50;49.50;;;;;;10566847;28;20257;-74
2022/09/16 08:18:22;;;;;;;8.17;7.37;;;17.60;49.50;;;;;;10563710;28;20235;-74
2022/09/16 08:23:25;;;;;;;8.33;7.63;;;17.60;49.40;;;;;;10567902;28;20234;-74
2022/09/16 08:28:30;;;;;;;9.40;7.17;;;17.70;49.20;;;;;;10567088;28;20227;-74
2022/09/16 08:33:54;;;;;;;7.43;6.73;;;17.70;48.70;;;;;;10561236;28;20234;-75
2022/09/16 08:38:57;;;;;;;6.57;5.97;;;17.70;48.60;;;;;;10559656;28;20227;-75
2022/09/16 08:44:12;;;;;;;8.17;6.53;;;17.80;48.40;;;;;;10561556;28;20269;-75
2022/09/16 08:49:21;;;;;;;7.10;6.40;;;17.80;47.40;;;;;;10561682;28;20223;-75
2022/09/16 08:54:28;;;;;;;6.80;6.20;;;17.80;47.40;;;;;;10573240;28;20231;-75
2022/09/16 08:59:37;;;;;;;8.50;6.53;;;17.80;47.30;;;;;;10573351;27;20229;-75
2022/09/16 09:04:40;;;;;;;6.80;6.20;;;17.90;47.60;;;;;;10576482;28;20246;-73
2022/09/16 09:09:59;;;;;;;6.20;5.60;;;17.80;47.50;;;;;;10568292;27;20276;-75
2022/09/16 09:15:20;;;;;;;7.93;6.50;;;17.80;47.20;;;;;;10571031;28;20218;-74
2022/09/16 09:20:39;;;;;;;7.13;6.07;;;17.80;46.80;;;;;;10570344;28;20222;-74
2022/09/16 09:25:49;;;;;;;7.40;6.50;;;17.80;46.80;;;;;;10573259;27;20223;-73
2022/09/16 09:31:02;;;;;;;5.87;5.37;;;17.90;46.90;;;;;;10573029;27;20257;-74
2022/09/16 09:36:27;;;;;;;6.57;5.80;;;17.80;46.80;;;;;;10570826;27;20225;-75
2022/09/16 09:41:34;;;;;;;6.37;5.77;;;17.80;46.80;;;;;;10569951;28;20226;-75
2022/09/16 09:46:41;;;;;;;6.77;6.00;;;17.80;46.80;;;;;;10572647;28;20227;-75
2022/09/16 09:51:50;;;;;;;6.00;5.50;;;17.70;46.70;;;;;;10571451;28;20786;-75
2022/09/16 09:56:58;;;;;;;6.63;5.93;;;17.70;46.70;;;;;;10569401;28;20249;-74
2022/09/16 10:02:03;;;;;;;5.80;5.23;;;17.70;46.70;;;;;;10567461;28;20548;-75
2022/09/16 10:07:08;;;;;;;5.93;5.33;;;17.70;46.90;;;;;;10572394;28;20281;-74
2022/09/16 10:12:11;;;;;;;4.00;3.60;;;17.60;46.60;;;;;;10574422;28;20223;-75
2022/09/16 10:17:17;;;;;;;3.90;3.53;;;17.60;46.60;;;;;;10577425;28;20223;-74
2022/09/16 10:22:24;;;;;;;3.83;3.53;;;17.50;46.50;;;;;;10578169;27;20599;-75
2022/09/16 10:27:28;;;;;;;4.57;4.17;;;17.50;46.50;;;;;;10575635;28;20230;-74
2022/09/16 10:32:39;;;;;;;3.90;3.50;;;17.50;46.50;;;;;;10571572;28;20226;-74
2022/09/16 10:37:50;;;;;;;5.30;4.03;;;17.50;46.90;;;;;;10556426;28;20226;-74
2022/09/16 10:42:57;;;;;;;2.70;2.50;;;17.40;46.50;;;;;;10564157;28;20761;-74
2022/09/16 10:48:06;;;;;;;3.60;2.40;;;17.30;46.40;;;;;;10568486;28;20219;-74
2022/09/16 10:53:22;;;;;;;3.60;2.70;;;17.30;46.30;;;;;;10566282;28;20297;-74
2022/09/16 10:58:26;;;;;;;2.60;2.40;;;17.30;46.30;;;;;;10583157;27;20233;-74
2022/09/16 11:03:50;;;;;;;2.67;2.47;;;17.20;46.60;;;;;;10559064;28;20222;-76
2022/09/16 11:09:03;;;;;;;3.10;2.90;;;17.20;47.00;;;;;;10560932;28;20231;-77
2022/09/16 11:14:13;;;;;;;2.90;2.70;;;17.20;47.20;;;;;;10564036;28;20257;-78
2022/09/16 11:19:26;;;;;;;3.43;2.77;;;17.30;46.40;;;;;;10566113;28;20234;-75
2022/09/16 11:24:56;;;;;;;3.17;2.87;;;17.20;46.80;;;;;;10557250;28;20226;-76
2022/09/16 11:30:08;;;;;;;2.90;2.70;;;17.20;47.40;;;;;;10559999;28;20234;-76
2022/09/16 11:35:40;;;;;;;2.80;2.23;;;17.20;47.50;;;;;;10529013;28;20743;-76
2022/09/16 11:40:48;;;;;;;2.30;2.10;;;17.20;47.80;;;;;;10529315;28;20220;-76
2022/09/16 11:45:58;;;;;;;2.67;1.97;;;17.20;46.30;;;;;;10564484;28;20226;-75
2022/09/16 11:51:11;;;;;;;2.30;1.90;;;17.20;46.30;;;;;;10571950;28;20787;-76
2022/09/16 11:56:19;;;;;;;2.57;2.03;;;17.10;46.20;;;;;;10572275;28;20243;-76
2022/09/16 12:01:31;;;;;;;4.00;2.77;;;17.10;46.60;;;;;;10571549;28;20867;-76
2022/09/16 12:06:42;;;;;;;4.97;4.37;;;17.10;46.70;;;;;;10571579;28;20250;-76
2022/09/16 12:11:50;;;;;;;3.30;3.00;;;17.10;47.50;;;;;;10569313;28;20222;-77
2022/09/16 12:16:58;;;;;;;3.60;3.20;;;17.10;47.70;;;;;;10568544;28;20626;-77
2022/09/16 12:22:08;;;;;;;3.30;3.00;;;17.20;47.80;;;;;;10563457;28;20215;-76
2022/09/16 12:27:22;;;;;;;3.20;2.90;;;17.20;47.20;;;;;;10574073;27;20218;-75
2022/09/16 12:32:32;;;;;;;3.10;2.80;;;17.20;47.50;;;;;;10585875;27;20249;-75
2022/09/16 12:37:40;;;;;;;2.80;2.60;;;17.20;47.70;;;;;;10573244;28;20231;-76
2022/09/16 12:43:19;;;;;;;3.57;2.30;;;17.30;48.00;;;;;;10573368;27;20715;-76
2022/09/16 12:48:58;;;;;;;3.47;3.17;;;17.30;48.00;;;;;;10580635;28;20737;-77
2022/09/16 12:54:49;;;;;;;3.47;3.17;;;17.30;48.10;;;;;;10571908;28;20229;-76
2022/09/16 13:00:17;;;;;;;3.70;3.10;;;17.30;47.90;;;;;;10443701;28;20940;-76
2022/09/16 13:05:25;;;;;;;3.17;2.80;;;17.30;48.70;;;;;;10556242;27;20235;-75
2022/09/16 13:10:36;;;;;;;4.13;2.70;;;17.40;48.10;;;;;;10572923;28;20231;-75
2022/09/16 13:16:02;;;;;;;5.00;3.30;;;17.30;47.60;;;;;;10570500;28;20218;-76
2022/09/16 13:21:12;;;;;;;4.00;3.40;;;17.30;47.60;;;;;;10566651;28;20219;-77
2022/09/16 13:26:15;;;;;;;3.20;2.90;;;17.20;47.60;;;;;;10568547;28;20226;-76
2022/09/16 13:31:29;;;;;;;2.93;2.70;;;17.20;47.30;;;;;;10577269;28;20229;-76
2022/09/16 13:36:36;;;;;;;3.33;2.77;;;17.10;47.70;;;;;;10567886;28;20237;-76
2022/09/16 13:41:41;;;;;;;2.80;2.60;;;17.10;47.70;;;;;;10554822;28;20222;-76
2022/09/16 13:46:46;;;;;;;2.97;2.70;;;17.10;48.30;;;;;;10567577;28;20280;-75
2022/09/16 13:51:50;;;;;;;3.43;2.40;;;17.20;48.10;;;;;;10566051;28;20219;-77
2022/09/16 13:57:16;;;;;;;2.40;2.20;;;17.30;47.00;;;;;;10566591;28;20279;-76
2022/09/16 14:02:35;;;;;;;3.40;2.37;;;17.40;46.50;;;;;;10547887;28;20218;-76
2022/09/16 14:07:46;;;;;;;2.70;2.37;;;17.50;46.50;;;;;;10565934;28;20230;-75
2022/09/16 14:12:59;;;;;;;2.73;2.20;;;17.50;45.90;;;;;;10563507;28;20242;-76
2022/09/16 14:18:04;;;;;;;3.13;2.40;;;17.60;45.40;;;;;;10569871;27;20594;-75
2022/09/16 14:23:16;;;;;;;2.90;2.40;;;17.60;45.80;;;;;;10566906;28;20600;-75
2022/09/16 14:28:21;;;;;;;5.47;4.70;;;17.60;45.50;;;;;;10566890;28;20227;-77
2022/09/16 14:33:29;;;;;;;4.93;4.20;;;17.60;45.80;;;;;;10563882;27;20284;-76
2022/09/16 14:38:37;;;;;;;3.37;2.50;;;17.50;45.10;;;;;;10563350;27;20691;-77
2022/09/16 14:43:49;;;;;;;3.50;2.10;;;17.50;45.40;;;;;;10562994;27;20219;-76
2022/09/16 14:48:53;;;;;;;2.57;2.30;;;17.40;45.90;;;;;;10556474;28;20226;-76
2022/09/16 14:53:58;;;;;;;4.43;2.50;;;17.40;46.00;;;;;;10561816;28;20235;-75
2022/09/16 14:59:18;;;;;;;2.83;2.50;;;17.30;46.30;;;;;;10553780;28;20207;-76
2022/09/16 15:04:27;;;;;;;4.17;2.73;;;17.30;46.30;;;;;;10565348;28;20223;-76
2022/09/16 15:09:42;;;;;;;3.73;2.60;;;17.30;46.30;;;;;;10560111;27;20268;-77
2022/09/16 15:14:45;;;;;;;3.00;2.80;;;17.30;46.30;;;;;;10559163;27;20235;-76
2022/09/16 15:19:54;;;;;;;2.70;2.50;;;17.40;46.50;;;;;;10559651;27;20226;-77
2022/09/16 15:24:59;;;;;;;2.60;2.40;;;17.30;46.30;;;;;;10558817;28;20969;-76
2022/09/16 15:30:04;;;;;;;4.30;2.67;;;17.30;46.30;;;;;;10562450;28;20276;-77
2022/09/16 15:35:21;;;;;;;3.90;2.20;;;17.20;46.30;;;;;;10563801;28;20230;-77
2022/09/16 15:40:31;;;;;;;2.97;2.60;;;17.20;46.30;;;;;;10560946;28;20235;-77
2022/09/16 15:45:35;;;;;;;3.03;2.73;;;17.20;46.30;;;;;;10560031;28;20231;-77
2022/09/16 15:50:44;;;;;;;3.10;2.80;;;17.20;46.30;;;;;;10561436;28;20231;-76
2022/09/16 15:55:58;;;;;;;3.50;2.57;;;17.20;45.90;;;;;;10564684;28;20251;-76
2022/09/16 16:01:04;;;;;;;3.07;2.73;;;17.10;46.20;;;;;;10562368;27;20219;-77
2022/09/16 16:06:09;;;;;;;3.20;2.63;;;17.10;46.20;;;;;;10558418;28;20307;-76
2022/09/16 16:11:13;;;;;;;3.43;2.80;;;17.10;46.20;;;;;;10559891;28;20219;-74
2022/09/16 16:16:19;;;;;;;3.90;2.50;;;17.10;46.20;;;;;;10552904;28;20222;-75
2022/09/16 16:21:24;;;;;;;2.37;2.17;;;17.00;46.10;;;;;;10560559;28;20651;-75
2022/09/16 16:26:27;;;;;;;4.10;2.87;;;17.00;46.10;;;;;;10559796;28;21861;-78
2022/09/16 16:31:31;;;;;;;3.00;2.73;;;17.00;46.10;;;;;;10558462;28;20235;-76
2022/09/16 16:36:36;;;;;;;4.07;3.13;;;17.00;46.10;;;;;;10559065;28;20215;-76
2022/09/16 16:41:39;;;;;;;3.20;3.00;;;17.00;46.10;;;;;;10569969;28;20223;-76
2022/09/16 16:46:42;;;;;;;3.07;2.80;;;16.90;46.00;;;;;;10563341;28;20288;-75
2022/09/16 16:51:48;;;;;;;3.53;3.23;;;16.90;46.00;;;;;;10566611;28;20216;-75
2022/09/16 16:56:51;;;;;;;4.00;3.30;;;16.90;46.00;;;;;;10548333;28;20640;-76
2022/09/16 17:01:56;;;;;;;3.50;3.20;;;16.90;46.00;;;;;;10567127;28;20565;-75
2022/09/16 17:07:00;;;;;;;3.80;3.43;;;16.80;45.90;;;;;;10559392;28;20235;-75
2022/09/16 17:12:24;;;;;;;3.83;3.40;;;16.80;45.90;;;;;;10561372;28;20692;-76
2022/09/16 17:17:27;;;;;;;4.00;3.50;;;16.80;45.90;;;;;;10566422;28;20273;-76
2022/09/16 17:22:35;;;;;;;3.70;3.40;;;16.80;45.90;;;;;;10569183;28;20227;-78
2022/09/16 17:27:38;;;;;;;4.47;4.13;;;16.80;45.90;;;;;;10564170;28;20223;-75
2022/09/16 17:32:41;;;;;;;6.53;4.63;;;16.70;45.80;;;;;;10560300;28;20226;-75
2022/09/16 17:37:46;;;;;;;6.60;4.23;;;16.70;46.00;;;;;;10566940;28;20729;-75
2022/09/16 17:42:51;;;;;;;4.10;3.70;;;16.70;45.90;;;;;;10564125;28;20226;-76
2022/09/16 17:47:56;;;;;;;6.30;3.60;;;16.70;45.80;;;;;;10562571;28;20230;-76
2022/09/16 17:53:00;;;;;;;3.50;3.20;;;16.60;46.60;;;;;;10565571;27;20258;-78
2022/09/16 17:58:04;;;;;;;4.50;3.97;;;16.60;46.50;;;;;;10564645;28;20241;-75
2022/09/16 18:03:07;;;;;;;5.13;4.67;;;16.60;46.30;;;;;;10569520;28;20225;-75
2022/09/16 18:08:12;;;;;;;4.60;4.20;;;16.60;46.20;;;;;;10573423;27;20223;-74
2022/09/16 18:13:15;;;;;;;4.70;4.10;;;16.60;46.40;;;;;;10573592;28;20715;-74
2022/09/16 18:18:19;;;;;;;5.00;4.50;;;16.50;46.30;;;;;;10573568;28;20265;-74
2022/09/16 18:23:23;;;;;;;4.57;4.20;;;16.50;46.40;;;;;;10574997;28;20250;-74
2022/09/16 18:28:26;;;;;;;4.97;3.90;;;16.50;46.60;;;;;;10575651;28;20249;-74
2022/09/16 18:33:30;;;;;;;4.53;4.13;;;16.50;46.60;;;;;;10576813;28;20234;-78
2022/09/16 18:38:37;;;;;;;4.73;3.83;;;16.40;46.70;;;;;;10573179;28;20699;-78
2022/09/16 18:43:44;;;;;;;4.57;4.17;;;16.40;47.00;;;;;;10584189;28;20268;-78
2022/09/16 18:48:49;;;;;;;4.80;4.30;;;16.30;47.10;;;;;;10585021;28;20227;-78
2022/09/16 18:53:56;;;;;;;4.93;4.50;;;16.30;47.20;;;;;;10582864;28;20314;-79
2022/09/16 18:59:01;;;;;;;4.50;4.13;;;16.30;47.30;;;;;;10584134;28;20280;-78
2022/09/16 19:04:26;;;;;;;3.93;3.53;;;16.30;47.30;;;;;;10580759;28;20286;-78
2022/09/16 19:09:31;;;;;;;4.20;3.80;;;16.30;47.30;;;;;;10583331;28;20299;-79
2022/09/16 19:14:34;;;;;;;5.90;4.47;;;16.30;47.20;;;;;;10579986;28;20227;-79
2022/09/16 19:19:37;;;;;;;4.70;4.13;;;16.30;47.10;;;;;;10548440;28;20231;-80
2022/09/16 19:24:43;;;;;;;4.30;3.90;;;16.30;47.00;;;;;;10538914;28;20227;-79
2022/09/16 19:29:51;;;;;;;4.53;4.13;;;16.30;47.00;;;;;;10539316;28;20223;-78
2022/09/16 19:34:54;;;;;;;4.60;4.20;;;16.30;46.90;;;;;;10539847;28;20232;-79
2022/09/16 19:39:58;;;;;;;4.93;4.53;;;16.30;47.00;;;;;;10540880;28;20238;-79
2022/09/16 19:45:01;;;;;;;5.10;4.60;;;16.30;46.90;;;;;;10539912;28;20235;-79
2022/09/16 19:50:06;;;;;;;5.40;4.63;;;16.30;46.60;;;;;;10540589;28;20230;-78
2022/09/16 19:55:11;;;;;;;4.93;4.40;;;16.30;46.70;;;;;;10539745;28;20232;-78
2022/09/16 20:00:15;;;;;;;5.03;4.63;;;16.20;46.50;;;;;;10542666;28;20264;-78
2022/09/16 20:05:18;;;;;;;4.83;4.43;;;16.30;46.60;;;;;;10579204;28;20242;-79
2022/09/16 20:10:23;;;;;;;4.83;4.43;;;16.20;46.70;;;;;;10572200;28;20289;-79
2022/09/16 20:15:27;;;;;;;4.30;3.90;;;16.30;47.10;;;;;;10550772;28;20231;-80
2022/09/16 20:20:30;;;;;;;3.70;3.40;;;16.30;46.40;;;;;;10568129;28;20231;-80
2022/09/16 20:25:36;;;;;;;4.40;3.97;;;16.30;46.30;;;;;;10561941;28;20663;-78
2022/09/16 20:30:39;;;;;;;4.37;3.97;;;16.30;46.20;;;;;;10573571;28;20222;-79
2022/09/16 20:35:42;;;;;;;5.07;4.67;;;16.30;46.00;;;;;;10571817;28;20227;-80
2022/09/16 20:40:47;;;;;;;6.40;4.53;;;16.20;46.00;;;;;;10565302;28;20227;-79
2022/09/16 20:45:50;;;;;;;5.67;5.17;;;16.20;46.40;;;;;;10569759;28;20226;-79
2022/09/16 20:50:54;;;;;;;4.83;4.43;;;16.10;46.10;;;;;;10576611;27;20260;-78
2022/09/16 20:56:02;;;;;;;4.00;3.60;;;16.10;46.30;;;;;;10576497;28;20245;-79
2022/09/16 21:01:07;;;;;;;4.37;3.97;;;16.00;46.70;;;;;;10569617;28;20659;-79
2022/09/16 21:06:13;;;;;;;4.27;3.97;;;16.00;46.70;;;;;;10590562;28;20254;-80
2022/09/16 21:11:19;;;;;;;4.00;3.70;;;16.00;46.90;;;;;;10588631;28;20595;-80
2022/09/16 21:16:23;;;;;;;4.03;3.50;;;16.00;46.90;;;;;;10589210;28;20230;-79
2022/09/16 21:21:28;;;;;;;4.17;3.50;;;16.00;46.80;;;;;;10588969;28;20215;-80
2022/09/16 21:26:34;;;;;;;4.70;2.80;;;15.90;46.80;;;;;;10589201;28;20280;-80
2022/09/16 21:31:39;;;;;;;2.40;2.30;;;15.80;46.60;;;;;;10588385;28;20226;-80
2022/09/16 21:36:44;;;;;;;2.57;2.10;;;15.80;46.30;;;;;;10588712;28;20227;-80
2022/09/16 21:41:49;;;;;;;1.90;1.80;;;15.70;46.00;;;;;;10587191;28;20221;-80
2022/09/16 21:46:52;;;;;;;1.70;1.60;;;15.80;45.80;;;;;;10586934;28;20231;-80
2022/09/16 21:51:57;;;;;;;1.80;1.70;;;15.70;45.90;;;;;;10587557;28;20219;-80
2022/09/16 21:57:02;;;;;;;2.07;1.57;;;15.70;45.30;;;;;;10587098;28;20694;-80
2022/09/16 22:02:10;;;;;;;2.23;1.63;;;15.60;45.40;;;;;;10585271;28;20227;-81
2022/09/16 22:07:14;;;;;;;1.63;1.40;;;15.60;45.30;;;;;;10566871;28;20258;-80
2022/09/16 22:12:19;;;;;;;2.73;1.80;;;15.70;45.60;;;;;;10540612;28;20232;-80
2022/09/16 22:17:23;;;;;;;2.10;1.70;;;15.60;45.20;;;;;;10541201;28;20570;-80
2022/09/16 22:22:27;;;;;;;1.83;1.40;;;15.60;45.40;;;;;;10539529;28;20231;-80
2022/09/16 22:27:34;;;;;;;1.50;1.20;;;15.50;45.10;;;;;;10539185;28;20235;-80
2022/09/16 22:32:37;;;;;;;1.50;1.40;;;15.50;44.80;;;;;;10528266;28;20228;-80
2022/09/16 22:37:43;;;;;;;2.10;1.50;;;15.40;45.00;;;;;;10538085;28;20231;-80
2022/09/16 22:42:47;;;;;;;1.40;1.30;;;15.30;45.10;;;;;;10537153;28;20227;-80
2022/09/16 22:47:50;;;;;;;2.47;1.60;;;15.20;45.10;;;;;;10573524;28;20252;-79
2022/09/16 22:52:53;;;;;;;2.30;1.70;;;15.10;45.30;;;;;;10578186;28;20238;-80
2022/09/16 22:57:58;;;;;;;2.53;1.50;;;15.10;45.50;;;;;;10577612;28;20227;-80
2022/09/16 23:03:01;;;;;;;2.03;1.60;;;15.10;45.60;;;;;;10580710;28;20238;-80
2022/09/16 23:08:04;;;;;;;1.47;1.37;;;15.00;45.60;;;;;;10581822;28;20238;-80
2022/09/16 23:13:12;;;;;;;1.40;1.30;;;15.00;45.70;;;;;;10582083;28;20231;-80
2022/09/16 23:18:17;;;;;;;1.57;1.37;;;15.00;45.60;;;;;;10582429;28;20699;-80
2022/09/16 23:23:22;;;;;;;1.33;1.10;;;15.10;45.60;;;;;;10581595;28;20310;-80
2022/09/16 23:28:26;;;;;;;1.70;1.30;;;15.10;45.00;;;;;;10581839;28;20230;-80
2022/09/16 23:33:29;;;;;;;1.00;1.00;;;15.20;44.50;;;;;;10581803;28;20252;-80
2022/09/16 23:38:35;;;;;;;1.87;1.07;;;15.10;44.70;;;;;;10580889;28;20235;-80
2022/09/16 23:43:40;;;;;;;1.73;1.20;;;15.20;44.50;;;;;;10580870;28;20233;-80
2022/09/16 23:48:44;;;;;;;1.10;1.10;;;15.20;44.50;;;;;;10580397;28;20306;-80
2022/09/16 23:53:47;;;;;;;1.07;1.07;;;15.20;44.50;;;;;;10579915;28;20223;-80
2022/09/16 23:58:52;;;;;;;0.97;0.93;;;15.20;44.50;;;;;;10579768;28;20226;-80
